createdAt,value
2023-02-23T00:00:32.632Z,13.60
2023-02-23T00:03:18.366Z,13.60
2023-02-23T00:06:04.652Z,13.40
2023-02-23T00:08:52.282Z,13.50
2023-02-23T00:11:38.098Z,13.60
2023-02-23T00:14:31.177Z,13.60
2023-02-23T00:17:18.902Z,13.50
2023-02-23T00:20:11.576Z,13.60
2023-02-23T00:22:58.202Z,13.50
2023-02-23T00:25:46.345Z,13.40
2023-02-23T00:28:32.057Z,13.40
2023-02-23T00:31:25.546Z,13.30
2023-02-23T00:34:13.584Z,13.20
2023-02-23T00:36:59.632Z,13.20
2023-02-23T00:39:45.963Z,13.20
2023-02-23T00:42:33.249Z,13.10
2023-02-23T00:45:20.650Z,13.10
2023-02-23T00:48:10.694Z,13.10
2023-02-23T00:51:00.110Z,13.20
2023-02-23T00:53:46.017Z,13.00
2023-02-23T00:56:31.692Z,13.10
2023-02-23T00:59:22.645Z,12.90
2023-02-23T01:02:08.300Z,13.10
2023-02-23T01:04:54.234Z,13.10
2023-02-23T01:07:40.354Z,13.20
2023-02-23T01:10:25.978Z,13.20
2023-02-23T01:13:11.647Z,13.20
2023-02-23T01:15:58.515Z,13.20
2023-02-23T01:18:45.903Z,13.20
2023-02-23T01:21:33.027Z,13.20
2023-02-23T01:24:18.547Z,13.30
2023-02-23T01:27:04.825Z,13.30
2023-02-23T01:29:50.542Z,13.20
2023-02-23T01:32:38.597Z,13.20
2023-02-23T01:35:24.222Z,13.10
2023-02-23T01:38:11.456Z,13.30
2023-02-23T01:40:57.100Z,13.30
2023-02-23T01:44:06.722Z,13.30
2023-02-23T01:46:54.421Z,13.20
2023-02-23T01:49:41.497Z,13.10
2023-02-23T01:52:27.544Z,13.10
2023-02-23T01:55:15.489Z,12.90
2023-02-23T01:58:06.977Z,13.00
2023-02-23T02:00:56.025Z,13.20
2023-02-23T02:03:47.068Z,13.20
2023-02-23T02:06:36.604Z,13.10
2023-02-23T02:09:25.631Z,13.20
2023-02-23T02:12:12.158Z,13.10
2023-02-23T02:15:00.045Z,13.10
2023-02-23T02:17:56.421Z,13.20
2023-02-23T02:21:17.250Z,13.10
2023-02-23T02:24:41.051Z,13.20
2023-02-23T02:27:43.707Z,13.20
2023-02-23T02:31:02.779Z,13.10
2023-02-23T02:34:18.254Z,13.00
2023-02-23T02:37:28.108Z,13.00
2023-02-23T02:40:22.461Z,13.20
2023-02-23T02:43:14.565Z,13.10
2023-02-23T02:46:07.746Z,13.00
2023-02-23T02:48:59.460Z,13.00
2023-02-23T02:51:53.231Z,13.10
2023-02-23T02:54:43.769Z,12.90
2023-02-23T02:57:32.863Z,12.90
2023-02-23T03:00:39.712Z,12.90
2023-02-23T03:03:53.565Z,12.90
2023-02-23T03:07:04.752Z,12.90
2023-02-23T03:10:17.040Z,12.90
2023-02-23T03:13:32.618Z,12.70
2023-02-23T03:16:44.644Z,12.80
2023-02-23T03:19:53.920Z,12.70
2023-02-23T03:23:06.166Z,12.90
2023-02-23T03:26:20.889Z,12.80
2023-02-23T03:29:31.242Z,12.70
2023-02-23T03:32:41.371Z,12.60
2023-02-23T03:35:54.104Z,12.60
2023-02-23T03:39:06.755Z,12.60
2023-02-23T03:42:16.009Z,12.80
2023-02-23T03:45:24.874Z,12.80
2023-02-23T03:48:32.124Z,12.70
2023-02-23T03:51:40.160Z,12.60
2023-02-23T03:54:53.001Z,12.50
2023-02-23T03:58:00.396Z,12.60
2023-02-23T04:01:07.898Z,12.40
2023-02-23T04:04:16.127Z,12.50
2023-02-23T04:07:22.270Z,12.40
2023-02-23T04:10:28.291Z,12.40
2023-02-23T04:13:19.630Z,12.40
2023-02-23T04:16:07.779Z,12.40
2023-02-23T04:18:54.759Z,12.40
2023-02-23T04:21:40.296Z,12.50
2023-02-23T04:24:25.954Z,12.60
2023-02-23T04:27:11.615Z,12.40
2023-02-23T04:29:58.897Z,12.50
2023-02-23T04:32:46.022Z,12.50
2023-02-23T04:35:32.127Z,12.60
2023-02-23T04:38:17.492Z,12.50
2023-02-23T04:41:03.307Z,12.50
2023-02-23T04:43:49.378Z,12.50
2023-02-23T04:46:36.300Z,12.40
2023-02-23T04:49:21.950Z,12.30
2023-02-23T04:52:07.992Z,12.40
2023-02-23T04:54:53.680Z,12.50
2023-02-23T04:57:39.240Z,12.30
2023-02-23T05:00:25.189Z,12.60
2023-02-23T05:03:12.255Z,12.40
2023-02-23T05:05:57.887Z,12.20
2023-02-23T05:08:43.533Z,12.20
2023-02-23T05:11:29.616Z,12.20
2023-02-23T05:14:15.286Z,12.20
2023-02-23T05:17:00.927Z,12.30
2023-02-23T05:19:48.016Z,12.30
2023-02-23T05:22:33.849Z,12.40
2023-02-23T05:25:19.700Z,12.40
2023-02-23T05:28:05.575Z,12.50
2023-02-23T05:30:51.186Z,12.50
2023-02-23T05:33:42.684Z,12.40
2023-02-23T05:36:30.078Z,12.50
2023-02-23T05:39:15.394Z,12.40
2023-02-23T05:42:00.944Z,12.40
2023-02-23T05:44:46.552Z,12.40
2023-02-23T05:47:32.467Z,12.40
2023-02-23T05:50:18.447Z,12.40
2023-02-23T05:53:05.588Z,12.30
2023-02-23T05:55:52.214Z,12.40
2023-02-23T05:58:38.040Z,12.30
2023-02-23T06:01:25.110Z,12.40
2023-02-23T06:04:10.408Z,12.40
2023-02-23T06:06:56.309Z,12.40
2023-02-23T06:09:44.600Z,12.40
2023-02-23T06:12:30.592Z,12.40
2023-02-23T06:15:16.227Z,12.40
2023-02-23T06:18:01.570Z,12.30
2023-02-23T06:20:47.279Z,12.30
2023-02-23T06:23:33.647Z,12.20
2023-02-23T06:26:20.657Z,12.20
2023-02-23T06:29:06.574Z,12.30
2023-02-23T06:31:52.277Z,12.40
2023-02-23T06:34:38.255Z,12.40
2023-02-23T06:37:24.374Z,12.50
2023-02-23T06:40:11.435Z,12.40
2023-02-23T06:43:06.263Z,12.40
2023-02-23T06:45:52.278Z,12.50
2023-02-23T06:48:38.260Z,12.60
2023-02-23T06:51:24.013Z,12.40
2023-02-23T06:54:09.884Z,12.40
2023-02-23T06:56:56.764Z,12.40
2023-02-23T06:59:43.986Z,12.40
2023-02-23T07:02:30.142Z,12.40
2023-02-23T07:05:16.300Z,12.40
2023-02-23T07:08:02.186Z,12.50
2023-02-23T07:10:47.733Z,12.40
2023-02-23T07:13:33.374Z,12.40
2023-02-23T07:16:20.317Z,12.50
2023-02-23T07:19:07.007Z,12.60
2023-02-23T07:21:53.542Z,12.50
2023-02-23T07:24:39.680Z,12.60
2023-02-23T07:27:25.850Z,12.50
2023-02-23T07:30:12.984Z,12.50
2023-02-23T07:33:00.383Z,12.50
2023-02-23T07:35:46.356Z,12.60
2023-02-23T07:38:32.242Z,12.60
2023-02-23T07:41:18.410Z,12.60
2023-02-23T07:44:04.532Z,12.60
2023-02-23T07:46:50.592Z,12.60
2023-02-23T07:49:37.671Z,12.70
2023-02-23T07:52:23.152Z,12.80
2023-02-23T07:55:10.290Z,12.90
2023-02-23T07:57:57.107Z,12.90
2023-02-23T08:00:43.047Z,13.00
2023-02-23T08:03:28.966Z,13.00
2023-02-23T08:06:16.605Z,13.10
2023-02-23T08:09:04.009Z,13.10
2023-02-23T08:11:49.621Z,13.10
2023-02-23T08:14:35.336Z,13.10
2023-02-23T08:17:21.123Z,13.20
2023-02-23T08:20:08.746Z,13.60
2023-02-23T08:22:56.612Z,13.50
2023-02-23T08:25:42.806Z,13.40
2023-02-23T08:28:29.531Z,13.40
2023-02-23T08:31:18.708Z,13.40
2023-02-23T08:34:04.726Z,13.60
2023-02-23T08:36:50.542Z,13.70
2023-02-23T08:39:37.970Z,13.70
2023-02-23T08:42:23.667Z,13.70
2023-02-23T08:45:10.587Z,13.80
2023-02-23T08:47:56.775Z,13.90
2023-02-23T08:50:42.624Z,13.80
2023-02-23T08:53:29.820Z,13.80
2023-02-23T08:56:17.337Z,14.00
2023-02-23T08:59:03.274Z,14.00
2023-02-23T09:01:49.238Z,14.20
2023-02-23T09:04:35.421Z,14.20
2023-02-23T09:07:23.244Z,14.20
2023-02-23T09:10:11.645Z,14.00
2023-02-23T09:12:58.641Z,14.00
2023-02-23T09:15:44.386Z,13.90
2023-02-23T09:18:30.686Z,13.80
2023-02-23T09:21:22.409Z,13.80
2023-02-23T09:24:08.089Z,13.80
2023-02-23T09:26:53.823Z,14.10
2023-02-23T09:29:44.486Z,14.20
2023-02-23T09:32:30.642Z,14.20
2023-02-23T09:35:17.952Z,14.00
2023-02-23T09:38:05.651Z,14.20
2023-02-23T09:40:53.634Z,14.30
2023-02-23T09:43:45.027Z,14.10
2023-02-23T09:46:40.378Z,13.90
2023-02-23T09:49:30.932Z,14.20
2023-02-23T09:52:20.039Z,14.00
2023-02-23T09:55:07.159Z,14.10
2023-02-23T09:57:56.906Z,14.10
2023-02-23T10:00:46.255Z,14.20
2023-02-23T10:03:37.664Z,14.40
2023-02-23T10:06:23.764Z,14.40
2023-02-23T10:09:19.449Z,14.70
2023-02-23T10:12:10.261Z,14.60
2023-02-23T10:15:10.402Z,14.60
2023-02-23T10:18:05.216Z,14.80
2023-02-23T10:20:59.667Z,14.70
2023-02-23T10:23:51.066Z,14.70
2023-02-23T10:26:44.187Z,14.70
2023-02-23T10:29:34.343Z,15.10
2023-02-23T10:32:24.499Z,15.10
2023-02-23T10:35:12.796Z,15.40
2023-02-23T10:38:01.430Z,15.20
2023-02-23T10:40:56.087Z,15.10
2023-02-23T10:43:42.254Z,15.10
2023-02-23T10:46:36.638Z,15.40
2023-02-23T10:49:26.372Z,15.50
2023-02-23T10:52:14.786Z,15.60
2023-02-23T10:55:05.690Z,15.60
2023-02-23T10:58:02.566Z,15.50
2023-02-23T11:00:54.891Z,15.70
2023-02-23T11:03:43.268Z,15.80
2023-02-23T11:06:32.559Z,15.80
2023-02-23T11:09:37.109Z,16.00
2023-02-23T11:12:38.019Z,16.00
2023-02-23T11:15:46.477Z,15.80
2023-02-23T11:18:34.720Z,15.60
2023-02-23T11:21:24.361Z,15.30
2023-02-23T11:24:19.245Z,15.40
2023-02-23T11:27:07.347Z,15.60
2023-02-23T11:29:57.636Z,15.50
2023-02-23T11:32:44.008Z,15.60
2023-02-23T11:35:31.621Z,15.50
2023-02-23T11:38:24.401Z,15.60
2023-02-23T11:41:21.183Z,15.80
2023-02-23T11:44:18.478Z,15.80
2023-02-23T11:47:05.360Z,15.90
2023-02-23T11:49:51.744Z,15.80
2023-02-23T11:52:37.210Z,15.70
2023-02-23T11:55:25.513Z,15.50
2023-02-23T11:58:23.209Z,15.50
2023-02-23T12:01:13.409Z,15.50
2023-02-23T12:04:00.591Z,15.50
2023-02-23T12:06:46.468Z,15.40
2023-02-23T12:09:34.936Z,15.40
2023-02-23T12:12:23.278Z,15.20
2023-02-23T12:15:19.734Z,15.30
2023-02-23T12:18:14.337Z,15.30
2023-02-23T12:21:16.936Z,15.60
2023-02-23T12:24:25.882Z,15.60
2023-02-23T12:27:16.017Z,15.80
2023-02-23T12:30:09.774Z,15.90
2023-02-23T12:33:00.262Z,15.70
2023-02-23T12:35:54.392Z,15.70
2023-02-23T12:38:49.423Z,15.50
2023-02-23T12:41:40.460Z,15.50
2023-02-23T12:44:37.352Z,15.30
2023-02-23T12:47:30.943Z,15.10
2023-02-23T12:50:26.363Z,14.90
2023-02-23T12:53:19.848Z,14.80
2023-02-23T12:56:21.170Z,14.60
2023-02-23T12:59:21.898Z,14.30
2023-02-23T13:02:16.447Z,14.10
2023-02-23T13:05:19.008Z,13.80
2023-02-23T13:08:20.674Z,13.60
2023-02-23T13:11:16.967Z,13.40
2023-02-23T13:14:13.403Z,13.30
2023-02-23T13:17:05.628Z,13.20
2023-02-23T13:19:55.433Z,13.20
2023-02-23T13:22:47.616Z,13.70
2023-02-23T13:25:40.036Z,14.00
2023-02-23T13:28:39.039Z,14.30
2023-02-23T13:31:29.315Z,14.60
2023-02-23T13:34:25.484Z,14.90
2023-02-23T13:37:15.375Z,15.10
2023-02-23T13:40:19.929Z,15.40
2023-02-23T13:43:17.602Z,15.50
2023-02-23T13:46:28.651Z,15.50
2023-02-23T13:49:28.807Z,15.20
2023-02-23T13:52:31.058Z,15.10
2023-02-23T13:55:49.966Z,15.60
2023-02-23T13:58:36.814Z,15.80
2023-02-23T14:01:31.287Z,15.20
2023-02-23T14:04:22.505Z,15.50
2023-02-23T14:07:19.235Z,15.60
2023-02-23T14:10:09.092Z,15.60
2023-02-23T14:13:07.311Z,15.60
2023-02-23T14:16:09.326Z,15.80
2023-02-23T14:19:10.255Z,15.40
2023-02-23T14:22:01.113Z,15.40
2023-02-23T14:24:46.868Z,15.20
2023-02-23T14:27:43.878Z,15.00
2023-02-23T14:30:43.293Z,14.80
2023-02-23T14:33:37.787Z,14.50
2023-02-23T14:36:37.708Z,14.70
2023-02-23T14:39:26.129Z,14.70
2023-02-23T14:42:21.143Z,14.80
2023-02-23T14:45:20.112Z,14.90
2023-02-23T14:48:09.857Z,15.10
2023-02-23T14:51:19.481Z,14.90
2023-02-23T14:54:31.758Z,15.00
2023-02-23T14:57:22.370Z,15.00
2023-02-23T15:00:16.613Z,14.60
2023-02-23T15:03:04.368Z,14.50
2023-02-23T15:05:54.559Z,14.50
2023-02-23T15:08:45.429Z,14.60
2023-02-23T15:11:33.236Z,14.70
2023-02-23T15:14:27.616Z,14.50
2023-02-23T15:17:21.334Z,14.50
2023-02-23T15:20:16.549Z,14.30
2023-02-23T15:23:04.765Z,14.20
2023-02-23T15:25:51.921Z,14.60
2023-02-23T15:28:41.228Z,14.70
2023-02-23T15:31:30.671Z,14.80
2023-02-23T15:34:20.290Z,14.70
2023-02-23T15:37:13.490Z,14.40
2023-02-23T15:40:02.454Z,14.40
2023-02-23T15:42:50.082Z,14.40
2023-02-23T15:45:42.845Z,14.40
2023-02-23T15:48:40.557Z,14.40
2023-02-23T15:51:34.079Z,14.40
2023-02-23T15:54:24.285Z,14.40
2023-02-23T15:57:19.623Z,14.20
2023-02-23T16:00:17.126Z,14.40
2023-02-23T16:03:06.881Z,14.20
2023-02-23T16:06:00.001Z,14.20
2023-02-23T16:08:56.861Z,13.80
2023-02-23T16:11:42.706Z,14.00
2023-02-23T16:14:34.435Z,14.00
2023-02-23T16:17:28.382Z,14.00
2023-02-23T16:20:20.084Z,13.80
2023-02-23T16:23:08.378Z,13.60
2023-02-23T16:25:59.065Z,13.70
2023-02-23T16:28:46.525Z,13.70
2023-02-23T16:31:44.565Z,13.60
2023-02-23T16:34:37.307Z,12.90
2023-02-23T16:37:31.484Z,12.90
2023-02-23T16:40:18.083Z,12.60
2023-02-23T16:43:04.466Z,12.50
2023-02-23T16:45:50.350Z,12.60
2023-02-23T16:48:36.833Z,12.70
2023-02-23T16:51:23.911Z,12.80
2023-02-23T16:54:11.853Z,12.80
2023-02-23T16:57:00.737Z,12.70
2023-02-23T16:59:50.597Z,12.50
2023-02-23T17:02:36.837Z,12.30
2023-02-23T17:05:24.641Z,12.10
2023-02-23T17:08:13.658Z,11.70
2023-02-23T17:11:04.738Z,11.40
2023-02-23T17:13:50.537Z,11.50
2023-02-23T17:16:37.425Z,11.30
2023-02-23T17:19:25.729Z,11.30
2023-02-23T17:22:13.019Z,11.20
2023-02-23T17:24:59.192Z,11.30
2023-02-23T17:27:51.209Z,11.20
2023-02-23T17:30:39.250Z,11.10
2023-02-23T17:33:28.520Z,11.30
2023-02-23T17:36:18.848Z,11.30
2023-02-23T17:39:08.447Z,11.40
2023-02-23T17:41:54.918Z,11.70
2023-02-23T17:44:42.176Z,11.30
2023-02-23T17:47:30.680Z,10.90
2023-02-23T17:50:19.998Z,10.80
2023-02-23T17:53:06.142Z,11.10
2023-02-23T17:55:52.312Z,11.00
2023-02-23T17:58:39.410Z,10.70
2023-02-23T18:01:26.529Z,10.90
2023-02-23T18:04:12.218Z,11.10
2023-02-23T18:06:59.358Z,11.40
2023-02-23T18:09:47.288Z,11.10
2023-02-23T18:12:33.090Z,10.90
2023-02-23T18:15:20.584Z,10.50
2023-02-23T18:18:07.845Z,9.80
2023-02-23T18:20:55.969Z,9.90
2023-02-23T18:23:42.550Z,9.70
2023-02-23T18:26:28.322Z,10.00
2023-02-23T18:29:14.196Z,9.70
2023-02-23T18:32:01.758Z,9.60
2023-02-23T18:34:49.470Z,9.60
2023-02-23T18:37:34.803Z,9.30
2023-02-23T18:40:23.932Z,9.20
2023-02-23T18:43:10.990Z,9.00
2023-02-23T18:45:57.587Z,8.80
2023-02-23T18:48:43.314Z,8.90
2023-02-23T18:51:30.468Z,8.70
2023-02-23T18:54:18.957Z,8.50
2023-02-23T18:57:05.734Z,8.30
2023-02-23T18:59:51.824Z,8.60
2023-02-23T19:02:37.823Z,8.20
2023-02-23T19:05:23.903Z,8.50
2023-02-23T19:08:13.527Z,8.30
2023-02-23T19:10:59.484Z,8.40
2023-02-23T19:13:45.021Z,8.50
2023-02-23T19:16:32.055Z,8.60
2023-02-23T19:19:19.354Z,8.80
2023-02-23T19:22:05.256Z,8.80
2023-02-23T19:24:52.776Z,8.70
2023-02-23T19:27:41.269Z,8.40
2023-02-23T19:30:26.925Z,8.20
2023-02-23T19:33:15.449Z,8.40
2023-02-23T19:36:05.327Z,8.60
2023-02-23T19:38:51.334Z,8.60
2023-02-23T19:41:40.137Z,8.30
2023-02-23T19:44:26.012Z,8.30
2023-02-23T19:47:12.117Z,8.30
2023-02-23T19:49:57.640Z,8.50
2023-02-23T19:52:45.247Z,8.60
2023-02-23T19:55:30.969Z,8.60
2023-02-23T19:58:18.440Z,8.70
2023-02-23T20:01:04.764Z,8.60
2023-02-23T20:03:56.791Z,8.80
2023-02-23T20:06:47.340Z,8.70
2023-02-23T20:09:35.209Z,8.60
2023-02-23T20:12:20.892Z,8.60
2023-02-23T20:15:09.774Z,8.50
2023-02-23T20:17:55.723Z,8.50
2023-02-23T20:20:44.008Z,8.50
2023-02-23T20:23:29.700Z,8.50
2023-02-23T20:26:18.042Z,8.50
2023-02-23T20:29:10.890Z,8.40
2023-02-23T20:31:59.883Z,8.40
2023-02-23T20:34:48.916Z,8.30
2023-02-23T20:37:35.054Z,8.20
2023-02-23T20:40:23.220Z,8.10
2023-02-23T20:43:12.142Z,8.10
2023-02-23T20:46:01.664Z,8.00
2023-02-23T20:48:49.265Z,8.00
2023-02-23T20:51:35.051Z,7.90
2023-02-23T20:54:21.204Z,7.90
2023-02-23T20:57:10.170Z,7.80
2023-02-23T20:59:58.159Z,7.80
2023-02-23T21:02:43.956Z,7.70
2023-02-23T21:05:33.168Z,7.70
2023-02-23T21:08:20.497Z,7.60
2023-02-23T21:11:07.867Z,7.50
2023-02-23T21:13:54.475Z,7.50
2023-02-23T21:16:45.141Z,7.50
2023-02-23T21:19:31.232Z,7.40
2023-02-23T21:22:18.455Z,7.40
2023-02-23T21:25:05.092Z,7.30
2023-02-23T21:27:51.199Z,7.30
2023-02-23T21:30:37.301Z,7.20
2023-02-23T21:33:22.674Z,7.20
2023-02-23T21:36:10.815Z,7.10
2023-02-23T21:38:58.372Z,7.10
2023-02-23T21:41:44.285Z,7.00
2023-02-23T21:44:30.540Z,7.00
2023-02-23T21:47:16.408Z,7.00
2023-02-23T21:50:02.729Z,6.90
2023-02-23T21:52:50.387Z,6.90
2023-02-23T21:55:38.757Z,6.90
2023-02-23T21:58:24.767Z,6.90
2023-02-23T22:01:11.691Z,6.80
2023-02-23T22:03:58.282Z,6.80
2023-02-23T22:06:44.680Z,6.70
2023-02-23T22:09:30.359Z,6.70
2023-02-23T22:12:17.588Z,6.60
2023-02-23T22:15:06.801Z,6.60
2023-02-23T22:17:52.456Z,6.60
2023-02-23T22:20:38.571Z,6.50
2023-02-23T22:23:24.160Z,6.50
2023-02-23T22:26:10.604Z,6.40
2023-02-23T22:28:57.648Z,6.40
2023-02-23T22:31:43.319Z,6.30
2023-02-23T22:34:29.447Z,6.40
2023-02-23T22:37:15.537Z,6.30
2023-02-23T22:40:01.640Z,6.30
2023-02-23T22:42:50.198Z,6.20
2023-02-23T22:45:38.084Z,6.20
2023-02-23T22:48:24.358Z,6.10
2023-02-23T22:51:11.330Z,6.10
2023-02-23T22:53:57.072Z,6.10
2023-02-23T22:56:42.749Z,6.00
2023-02-23T22:59:30.422Z,6.00
2023-02-23T23:02:17.904Z,5.90
2023-02-23T23:05:04.366Z,5.90
2023-02-23T23:07:49.798Z,5.90
2023-02-23T23:10:35.222Z,5.80
2023-02-23T23:13:20.831Z,5.80
2023-02-23T23:16:28.838Z,5.70
2023-02-23T23:19:23.825Z,5.70
2023-02-23T23:22:13.550Z,5.70
2023-02-23T23:24:58.768Z,5.60
2023-02-23T23:27:47.629Z,5.60
2023-02-23T23:30:35.195Z,5.60
2023-02-23T23:33:20.877Z,5.60
2023-02-23T23:36:10.106Z,5.50
2023-02-23T23:38:56.587Z,5.50
2023-02-23T23:41:43.100Z,5.40
2023-02-23T23:44:29.083Z,5.40
2023-02-23T23:47:15.231Z,5.40
2023-02-23T23:50:02.680Z,5.30
2023-02-23T23:52:50.501Z,5.30
2023-02-23T23:55:36.370Z,5.30
2023-02-23T23:58:21.931Z,5.20
